sensor_id;sensor_type;location;lat;lon;timestamp;pressure;altitude;pressure_sealevel;temperature;humidity
3590;BME280;1809;48.470;9.226;2022-07-23T00:01:15;96966.34;;;21.74;100.00
3590;BME280;1809;48.470;9.226;2022-07-23T00:03:40;96933.50;;;21.63;100.00
3590;BME280;1809;48.470;9.226;2022-07-23T00:06:05;96907.19;;;21.71;100.00
3590;BME280;1809;48.470;9.226;2022-07-23T00:08:31;96887.47;;;21.77;100.00
3590;BME280;1809;48.470;9.226;2022-07-23T00:10:56;96869.13;;;21.74;100.00
3590;BME280;1809;48.470;9.226;2022-07-23T00:13:22;96855.16;;;21.76;100.00
3590;BME280;1809;48.470;9.226;2022-07-23T00:15:47;96850.47;;;21.76;100.00
3590;BME280;1809;48.470;9.226;2022-07-23T00:18:12;96854.00;;;21.77;100.00
3590;BME280;1809;48.470;9.226;2022-07-23T00:20:38;96851.41;;;21.84;100.00
3590;BME280;1809;48.470;9.226;2022-07-23T00:23:03;96840.81;;;21.79;100.00
3590;BME280;1809;48.470;9.226;2022-07-23T00:25:28;96837.38;;;21.82;100.00
3590;BME280;1809;48.470;9.226;2022-07-23T00:27:54;96840.75;;;21.75;100.00
3590;BME280;1809;48.470;9.226;2022-07-23T00:30:19;96832.53;;;21.72;100.00
3590;BME280;1809;48.470;9.226;2022-07-23T00:32:49;96826.13;;;21.61;100.00
3590;BME280;1809;48.470;9.226;2022-07-23T00:35:16;96839.75;;;21.61;100.00
3590;BME280;1809;48.470;9.226;2022-07-23T00:37:41;96842.47;;;21.61;100.00
3590;BME280;1809;48.470;9.226;2022-07-23T00:40:07;96852.78;;;21.74;100.00
3590;BME280;1809;48.470;9.226;2022-07-23T00:42:33;96862.91;;;21.74;100.00
3590;BME280;1809;48.470;9.226;2022-07-23T00:44:59;96852.31;;;21.69;100.00
3590;BME280;1809;48.470;9.226;2022-07-23T00:47:24;96855.81;;;21.69;100.00
3590;BME280;1809;48.470;9.226;2022-07-23T00:49:49;96861.75;;;21.75;100.00
3590;BME280;1809;48.470;9.226;2022-07-23T00:52:15;96867.28;;;21.78;100.00
3590;BME280;1809;48.470;9.226;2022-07-23T00:54:41;96900.28;;;21.77;100.00
3590;BME280;1809;48.470;9.226;2022-07-23T00:57:07;96894.97;;;21.84;100.00
3590;BME280;1809;48.470;9.226;2022-07-23T00:59:32;96898.84;;;21.83;100.00
3590;BME280;1809;48.470;9.226;2022-07-23T01:01:58;96893.97;;;21.92;100.00
3590;BME280;1809;48.470;9.226;2022-07-23T01:04:23;96900.06;;;21.85;100.00
3590;BME280;1809;48.470;9.226;2022-07-23T01:06:49;96905.38;;;21.98;100.00
3590;BME280;1809;48.470;9.226;2022-07-23T01:09:14;96896.47;;;22.01;100.00
3590;BME280;1809;48.470;9.226;2022-07-23T01:11:40;96896.66;;;21.88;100.00
3590;BME280;1809;48.470;9.226;2022-07-23T01:14:14;96905.06;;;21.83;100.00
3590;BME280;1809;48.470;9.226;2022-07-23T01:16:41;96891.69;;;21.75;100.00
3590;BME280;1809;48.470;9.226;2022-07-23T01:19:07;96874.63;;;21.78;100.00
3590;BME280;1809;48.470;9.226;2022-07-23T01:21:48;96866.22;;;21.64;100.00
3590;BME280;1809;48.470;9.226;2022-07-23T01:24:14;96867.78;;;21.65;100.00
3590;BME280;1809;48.470;9.226;2022-07-23T01:26:44;96862.81;;;21.70;100.00
3590;BME280;1809;48.470;9.226;2022-07-23T01:29:11;96845.53;;;21.59;100.00
3590;BME280;1809;48.470;9.226;2022-07-23T01:31:37;96829.53;;;21.58;100.00
3590;BME280;1809;48.470;9.226;2022-07-23T01:34:08;96816.63;;;21.51;100.00
3590;BME280;1809;48.470;9.226;2022-07-23T01:36:36;96817.56;;;21.39;100.00
3590;BME280;1809;48.470;9.226;2022-07-23T01:39:03;96806.25;;;21.37;100.00
3590;BME280;1809;48.470;9.226;2022-07-23T01:41:30;96784.94;;;21.20;100.00
3590;BME280;1809;48.470;9.226;2022-07-23T01:43:56;96773.16;;;21.13;100.00
3590;BME280;1809;48.470;9.226;2022-07-23T01:46:22;96773.22;;;21.16;100.00
3590;BME280;1809;48.470;9.226;2022-07-23T01:48:48;96779.72;;;21.12;100.00
3590;BME280;1809;48.470;9.226;2022-07-23T01:51:14;96782.44;;;21.12;100.00
3590;BME280;1809;48.470;9.226;2022-07-23T01:53:40;96787.66;;;21.20;100.00
3590;BME280;1809;48.470;9.226;2022-07-23T01:56:06;96786.78;;;21.35;100.00
3590;BME280;1809;48.470;9.226;2022-07-23T01:58:32;96787.81;;;21.50;100.00
3590;BME280;1809;48.470;9.226;2022-07-23T02:00:58;96795.09;;;21.65;100.00
3590;BME280;1809;48.470;9.226;2022-07-23T02:03:25;96781.66;;;21.76;100.00
3590;BME280;1809;48.470;9.226;2022-07-23T02:05:50;96766.59;;;21.82;100.00
3590;BME280;1809;48.470;9.226;2022-07-23T02:08:17;96747.66;;;21.89;100.00
3590;BME280;1809;48.470;9.226;2022-07-23T02:10:43;96766.72;;;21.89;100.00
3590;BME280;1809;48.470;9.226;2022-07-23T02:13:10;96774.88;;;21.89;100.00
3590;BME280;1809;48.470;9.226;2022-07-23T02:15:35;96787.47;;;21.97;100.00
3590;BME280;1809;48.470;9.226;2022-07-23T02:18:01;96810.53;;;22.03;100.00
3590;BME280;1809;48.470;9.226;2022-07-23T02:20:27;96814.38;;;22.02;100.00
3590;BME280;1809;48.470;9.226;2022-07-23T02:22:53;96834.31;;;22.06;100.00
3590;BME280;1809;48.470;9.226;2022-07-23T02:25:19;96844.72;;;22.01;100.00
3590;BME280;1809;48.470;9.226;2022-07-23T02:27:45;96872.03;;;22.04;100.00
3590;BME280;1809;48.470;9.226;2022-07-23T02:30:10;96875.47;;;22.01;100.00
3590;BME280;1809;48.470;9.226;2022-07-23T02:32:36;96889.81;;;21.98;100.00
3590;BME280;1809;48.470;9.226;2022-07-23T02:35:03;96898.22;;;21.89;100.00
3590;BME280;1809;48.470;9.226;2022-07-23T02:37:29;96899.28;;;21.85;100.00
3590;BME280;1809;48.470;9.226;2022-07-23T02:39:55;96889.84;;;22.02;100.00
3590;BME280;1809;48.470;9.226;2022-07-23T02:42:24;96895.38;;;22.05;100.00
3590;BME280;1809;48.470;9.226;2022-07-23T02:44:52;96905.06;;;22.03;100.00
3590;BME280;1809;48.470;9.226;2022-07-23T02:47:18;96907.25;;;22.16;100.00
3590;BME280;1809;48.470;9.226;2022-07-23T02:49:44;96905.47;;;22.05;100.00
3590;BME280;1809;48.470;9.226;2022-07-23T02:52:09;96906.28;;;22.05;100.00
3590;BME280;1809;48.470;9.226;2022-07-23T02:54:38;96907.13;;;22.09;100.00
3590;BME280;1809;48.470;9.226;2022-07-23T02:57:04;96898.81;;;21.79;100.00
3590;BME280;1809;48.470;9.226;2022-07-23T02:59:30;96901.25;;;21.65;100.00
3590;BME280;1809;48.470;9.226;2022-07-23T03:01:56;96900.63;;;21.53;100.00
3590;BME280;1809;48.470;9.226;2022-07-23T03:04:25;96913.59;;;21.40;100.00
3590;BME280;1809;48.470;9.226;2022-07-23T03:06:51;96911.59;;;21.37;100.00
3590;BME280;1809;48.470;9.226;2022-07-23T03:09:17;96907.94;;;21.29;100.00
3590;BME280;1809;48.470;9.226;2022-07-23T03:11:42;96927.25;;;21.24;100.00
3590;BME280;1809;48.470;9.226;2022-07-23T03:14:08;96928.69;;;21.37;100.00
3590;BME280;1809;48.470;9.226;2022-07-23T03:16:34;96929.28;;;21.47;100.00
3590;BME280;1809;48.470;9.226;2022-07-23T03:19:00;96942.72;;;21.39;100.00
3590;BME280;1809;48.470;9.226;2022-07-23T03:21:25;96943.44;;;21.36;100.00
3590;BME280;1809;48.470;9.226;2022-07-23T03:23:51;96939.34;;;21.27;100.00
3590;BME280;1809;48.470;9.226;2022-07-23T03:26:16;96939.56;;;21.18;100.00
3590;BME280;1809;48.470;9.226;2022-07-23T03:28:41;96932.03;;;21.12;100.00
3590;BME280;1809;48.470;9.226;2022-07-23T03:31:07;96936.28;;;21.09;100.00
3590;BME280;1809;48.470;9.226;2022-07-23T03:33:32;96937.25;;;21.01;100.00
3590;BME280;1809;48.470;9.226;2022-07-23T03:35:57;96929.78;;;20.98;100.00
3590;BME280;1809;48.470;9.226;2022-07-23T03:38:23;96920.63;;;21.06;100.00
3590;BME280;1809;48.470;9.226;2022-07-23T03:40:48;96924.34;;;20.98;100.00
3590;BME280;1809;48.470;9.226;2022-07-23T03:43:13;96921.47;;;20.91;100.00
3590;BME280;1809;48.470;9.226;2022-07-23T03:45:39;96927.88;;;20.83;100.00
3590;BME280;1809;48.470;9.226;2022-07-23T03:48:04;96927.88;;;20.83;100.00
3590;BME280;1809;48.470;9.226;2022-07-23T03:50:30;96924.66;;;20.77;100.00
3590;BME280;1809;48.470;9.226;2022-07-23T03:52:55;96927.88;;;20.83;100.00
3590;BME280;1809;48.470;9.226;2022-07-23T03:55:21;96939.47;;;20.80;100.00
3590;BME280;1809;48.470;9.226;2022-07-23T03:57:46;96949.31;;;20.69;100.00
3590;BME280;1809;48.470;9.226;2022-07-23T04:00:12;96946.59;;;20.69;100.00
3590;BME280;1809;48.470;9.226;2022-07-23T04:02:38;96948.13;;;20.51;100.00
3590;BME280;1809;48.470;9.226;2022-07-23T04:05:05;96939.78;;;20.59;100.00
3590;BME280;1809;48.470;9.226;2022-07-23T04:07:30;96936.19;;;20.39;100.00
3590;BME280;1809;48.470;9.226;2022-07-23T04:09:56;96935.47;;;20.43;100.00
3590;BME280;1809;48.470;9.226;2022-07-23T04:12:21;96930.22;;;20.50;100.00
3590;BME280;1809;48.470;9.226;2022-07-23T04:14:47;96938.13;;;20.55;100.00
3590;BME280;1809;48.470;9.226;2022-07-23T04:17:12;96936.59;;;20.73;100.00
3590;BME280;1809;48.470;9.226;2022-07-23T04:19:38;96940.03;;;20.70;100.00
3590;BME280;1809;48.470;9.226;2022-07-23T04:22:07;96938.03;;;20.67;100.00
3590;BME280;1809;48.470;9.226;2022-07-23T04:24:33;96930.00;;;20.74;100.00
3590;BME280;1809;48.470;9.226;2022-07-23T04:26:58;96938.88;;;20.71;100.00
3590;BME280;1809;48.470;9.226;2022-07-23T04:29:23;96953.50;;;20.82;100.00
3590;BME280;1809;48.470;9.226;2022-07-23T04:31:49;96950.84;;;21.01;100.00
3590;BME280;1809;48.470;9.226;2022-07-23T04:34:14;96957.25;;;21.28;100.00
3590;BME280;1809;48.470;9.226;2022-07-23T04:36:40;96946.47;;;21.70;100.00
3590;BME280;1809;48.470;9.226;2022-07-23T04:39:05;96946.56;;;21.96;100.00
3590;BME280;1809;48.470;9.226;2022-07-23T04:41:30;96959.06;;;22.42;100.00
3590;BME280;1809;48.470;9.226;2022-07-23T04:43:56;96951.59;;;22.85;100.00
3590;BME280;1809;48.470;9.226;2022-07-23T04:46:21;96949.34;;;23.20;100.00
3590;BME280;1809;48.470;9.226;2022-07-23T04:48:46;96960.22;;;23.43;100.00
3590;BME280;1809;48.470;9.226;2022-07-23T04:51:12;96956.84;;;23.53;100.00
3590;BME280;1809;48.470;9.226;2022-07-23T04:53:37;96959.28;;;23.62;100.00
3590;BME280;1809;48.470;9.226;2022-07-23T04:56:03;96955.81;;;23.38;100.00
3590;BME280;1809;48.470;9.226;2022-07-23T04:58:29;96964.41;;;23.37;100.00
3590;BME280;1809;48.470;9.226;2022-07-23T05:00:56;96965.09;;;23.30;100.00
3590;BME280;1809;48.470;9.226;2022-07-23T05:03:23;96960.84;;;23.63;100.00
3590;BME280;1809;48.470;9.226;2022-07-23T05:05:48;96960.16;;;23.73;100.00
3590;BME280;1809;48.470;9.226;2022-07-23T05:08:14;96971.09;;;23.69;100.00
3590;BME280;1809;48.470;9.226;2022-07-23T05:10:39;96974.56;;;23.66;100.00
3590;BME280;1809;48.470;9.226;2022-07-23T05:13:04;96976.34;;;23.55;100.00
3590;BME280;1809;48.470;9.226;2022-07-23T05:15:30;96974.94;;;23.38;100.00
3590;BME280;1809;48.470;9.226;2022-07-23T05:17:55;96965.03;;;23.27;100.00
3590;BME280;1809;48.470;9.226;2022-07-23T05:20:20;96959.13;;;22.95;100.00
3590;BME280;1809;48.470;9.226;2022-07-23T05:22:46;96971.44;;;22.82;100.00
3590;BME280;1809;48.470;9.226;2022-07-23T05:25:11;96990.50;;;22.82;100.00
3590;BME280;1809;48.470;9.226;2022-07-23T05:27:36;96989.38;;;22.60;100.00
3590;BME280;1809;48.470;9.226;2022-07-23T05:30:02;96973.16;;;22.48;100.00
3590;BME280;1809;48.470;9.226;2022-07-23T05:32:28;96968.75;;;22.17;100.00
3590;BME280;1809;48.470;9.226;2022-07-23T05:34:53;96968.28;;;22.34;100.00
3590;BME280;1809;48.470;9.226;2022-07-23T05:37:18;96965.50;;;22.54;100.00
3590;BME280;1809;48.470;9.226;2022-07-23T05:39:44;96957.81;;;22.85;100.00
3590;BME280;1809;48.470;9.226;2022-07-23T05:42:09;96953.88;;;23.09;100.00
3590;BME280;1809;48.470;9.226;2022-07-23T05:44:34;96956.50;;;23.28;100.00
3590;BME280;1809;48.470;9.226;2022-07-23T05:47:00;96961.97;;;24.76;100.00
3590;BME280;1809;48.470;9.226;2022-07-23T05:49:26;96966.56;;;26.02;100.00
3590;BME280;1809;48.470;9.226;2022-07-23T05:51:51;96960.72;;;27.31;100.00
3590;BME280;1809;48.470;9.226;2022-07-23T05:54:17;96959.25;;;28.09;100.00
3590;BME280;1809;48.470;9.226;2022-07-23T05:56:42;96968.59;;;29.22;100.00
3590;BME280;1809;48.470;9.226;2022-07-23T05:59:07;96967.72;;;30.00;100.00
3590;BME280;1809;48.470;9.226;2022-07-23T06:01:33;96962.16;;;30.30;100.00
3590;BME280;1809;48.470;9.226;2022-07-23T06:03:59;96965.44;;;29.95;100.00
3590;BME280;1809;48.470;9.226;2022-07-23T06:06:24;96966.81;;;30.63;100.00
3590;BME280;1809;48.470;9.226;2022-07-23T06:08:50;96977.84;;;31.56;100.00
3590;BME280;1809;48.470;9.226;2022-07-23T06:11:15;96966.00;;;32.31;100.00
3590;BME280;1809;48.470;9.226;2022-07-23T06:13:41;96963.50;;;31.61;100.00
3590;BME280;1809;48.470;9.226;2022-07-23T06:16:07;96960.84;;;30.91;100.00
3590;BME280;1809;48.470;9.226;2022-07-23T06:18:32;96963.50;;;31.61;100.00
3590;BME280;1809;48.470;9.226;2022-07-23T06:20:58;96955.50;;;32.06;100.00
3590;BME280;1809;48.470;9.226;2022-07-23T06:23:23;96959.84;;;32.75;100.00
3590;BME280;1809;48.470;9.226;2022-07-23T06:25:48;96960.75;;;33.62;100.00
3590;BME280;1809;48.470;9.226;2022-07-23T06:28:14;96950.31;;;34.20;93.84
3590;BME280;1809;48.470;9.226;2022-07-23T06:30:40;96950.44;;;34.42;91.71
3590;BME280;1809;48.470;9.226;2022-07-23T06:33:06;96957.56;;;34.68;90.31
3590;BME280;1809;48.470;9.226;2022-07-23T06:35:31;96955.69;;;33.57;93.57
3590;BME280;1809;48.470;9.226;2022-07-23T06:37:58;96966.09;;;34.11;88.66
3590;BME280;1809;48.470;9.226;2022-07-23T06:40:24;96966.75;;;34.15;93.42
3590;BME280;1809;48.470;9.226;2022-07-23T06:42:49;96976.03;;;35.22;82.11
3590;BME280;1809;48.470;9.226;2022-07-23T06:45:14;96970.09;;;33.52;91.54
3590;BME280;1809;48.470;9.226;2022-07-23T06:47:39;96969.81;;;33.34;90.33
3590;BME280;1809;48.470;9.226;2022-07-23T06:50:07;96984.31;;;34.12;90.07
3590;BME280;1809;48.470;9.226;2022-07-23T06:52:32;96984.09;;;34.69;87.37
3590;BME280;1809;48.470;9.226;2022-07-23T06:54:57;96981.28;;;35.07;81.31
3590;BME280;1809;48.470;9.226;2022-07-23T06:57:23;96984.06;;;35.76;76.29
3590;BME280;1809;48.470;9.226;2022-07-23T06:59:50;96987.88;;;35.69;74.28
3590;BME280;1809;48.470;9.226;2022-07-23T07:02:16;96995.22;;;35.41;76.73
3590;BME280;1809;48.470;9.226;2022-07-23T07:04:41;96985.88;;;34.88;81.94
3590;BME280;1809;48.470;9.226;2022-07-23T07:07:06;96996.00;;;33.33;92.62
3590;BME280;1809;48.470;9.226;2022-07-23T07:09:32;96998.44;;;33.88;88.50
3590;BME280;1809;48.470;9.226;2022-07-23T07:11:57;97000.44;;;34.00;92.43
3590;BME280;1809;48.470;9.226;2022-07-23T07:14:23;97001.13;;;32.86;100.00
3590;BME280;1809;48.470;9.226;2022-07-23T07:16:48;97001.47;;;32.36;100.00
3590;BME280;1809;48.470;9.226;2022-07-23T07:19:13;97008.72;;;32.30;100.00
3590;BME280;1809;48.470;9.226;2022-07-23T07:21:39;97022.91;;;32.16;100.00
3590;BME280;1809;48.470;9.226;2022-07-23T07:24:05;97022.50;;;32.85;100.00
3590;BME280;1809;48.470;9.226;2022-07-23T07:26:30;97019.94;;;32.07;100.00
3590;BME280;1809;48.470;9.226;2022-07-23T07:28:56;97019.25;;;32.55;100.00
3590;BME280;1809;48.470;9.226;2022-07-23T07:31:21;97014.66;;;32.48;100.00
3590;BME280;1809;48.470;9.226;2022-07-23T07:33:47;97024.38;;;31.61;100.00
3590;BME280;1809;48.470;9.226;2022-07-23T07:36:13;97025.31;;;30.81;100.00
3590;BME280;1809;48.470;9.226;2022-07-23T07:38:38;97032.91;;;31.24;100.00
3590;BME280;1809;48.470;9.226;2022-07-23T07:41:03;97031.63;;;32.14;100.00
3590;BME280;1809;48.470;9.226;2022-07-23T07:43:29;97024.16;;;31.29;100.00
3590;BME280;1809;48.470;9.226;2022-07-23T07:45:54;97021.41;;;31.49;100.00
3590;BME280;1809;48.470;9.226;2022-07-23T07:48:20;97021.97;;;31.63;100.00
3590;BME280;1809;48.470;9.226;2022-07-23T07:50:45;97036.19;;;31.19;100.00
3590;BME280;1809;48.470;9.226;2022-07-23T07:53:10;97031.00;;;30.44;100.00
3590;BME280;1809;48.470;9.226;2022-07-23T07:55:36;97029.09;;;30.11;100.00
3590;BME280;1809;48.470;9.226;2022-07-23T07:58:01;97032.28;;;29.72;100.00
3590;BME280;1809;48.470;9.226;2022-07-23T08:00:27;97029.59;;;28.79;100.00
3590;BME280;1809;48.470;9.226;2022-07-23T08:02:53;97040.13;;;28.22;100.00
3590;BME280;1809;48.470;9.226;2022-07-23T08:05:21;97038.50;;;28.36;100.00
3590;BME280;1809;48.470;9.226;2022-07-23T08:07:47;97029.59;;;28.00;100.00
3590;BME280;1809;48.470;9.226;2022-07-23T08:10:12;97038.81;;;27.58;100.00
3590;BME280;1809;48.470;9.226;2022-07-23T08:12:49;97046.16;;;27.89;100.00
3590;BME280;1809;48.470;9.226;2022-07-23T08:15:16;97050.53;;;27.62;100.00
3590;BME280;1809;48.470;9.226;2022-07-23T08:17:52;97048.13;;;27.92;100.00
3590;BME280;1809;48.470;9.226;2022-07-23T08:20:20;97046.47;;;28.12;100.00
3590;BME280;1809;48.470;9.226;2022-07-23T08:22:49;97049.19;;;28.23;100.00
3590;BME280;1809;48.470;9.226;2022-07-23T08:25:25;97047.19;;;28.27;100.00
3590;BME280;1809;48.470;9.226;2022-07-23T08:27:51;97045.53;;;28.40;100.00
3590;BME280;1809;48.470;9.226;2022-07-23T08:30:17;97040.75;;;28.55;100.00
3590;BME280;1809;48.470;9.226;2022-07-23T08:32:57;97045.56;;;28.99;100.00
3590;BME280;1809;48.470;9.226;2022-07-23T08:37:58;97042.97;;;29.66;100.00
3590;BME280;1809;48.470;9.226;2022-07-23T08:40:26;97048.09;;;29.64;100.00
3590;BME280;1809;48.470;9.226;2022-07-23T08:42:51;97054.03;;;29.63;100.00
3590;BME280;1809;48.470;9.226;2022-07-23T08:45:22;97052.44;;;29.21;100.00
3590;BME280;1809;48.470;9.226;2022-07-23T08:47:49;97055.97;;;29.25;100.00
3590;BME280;1809;48.470;9.226;2022-07-23T08:50:15;97056.97;;;29.45;100.00
3590;BME280;1809;48.470;9.226;2022-07-23T08:52:40;97059.38;;;29.40;100.00
3590;BME280;1809;48.470;9.226;2022-07-23T08:55:07;97048.63;;;29.52;100.00
3590;BME280;1809;48.470;9.226;2022-07-23T08:57:33;97060.13;;;29.84;100.00
3590;BME280;1809;48.470;9.226;2022-07-23T08:59:58;97050.50;;;30.00;100.00
3590;BME280;1809;48.470;9.226;2022-07-23T09:02:23;97047.50;;;29.87;100.00
3590;BME280;1809;48.470;9.226;2022-07-23T09:04:49;97046.25;;;29.92;100.00
3590;BME280;1809;48.470;9.226;2022-07-23T09:07:14;97036.38;;;29.94;100.00
3590;BME280;1809;48.470;9.226;2022-07-23T09:09:40;97023.72;;;29.97;100.00
3590;BME280;1809;48.470;9.226;2022-07-23T09:12:08;97031.56;;;29.64;100.00
3590;BME280;1809;48.470;9.226;2022-07-23T09:14:42;97026.00;;;29.68;100.00
3590;BME280;1809;48.470;9.226;2022-07-23T09:17:12;97027.44;;;30.17;100.00
3590;BME280;1809;48.470;9.226;2022-07-23T09:19:38;97021.31;;;29.99;100.00
3590;BME280;1809;48.470;9.226;2022-07-23T09:22:36;97025.19;;;30.05;100.00
3590;BME280;1809;48.470;9.226;2022-07-23T09:25:15;97028.03;;;30.01;100.00
3590;BME280;1809;48.470;9.226;2022-07-23T09:27:55;97028.03;;;29.64;100.00
3590;BME280;1809;48.470;9.226;2022-07-23T09:30:26;97031.38;;;29.85;100.00
3590;BME280;1809;48.470;9.226;2022-07-23T09:33:09;97032.19;;;29.82;100.00
3590;BME280;1809;48.470;9.226;2022-07-23T09:35:52;97038.25;;;29.67;100.00
3590;BME280;1809;48.470;9.226;2022-07-23T09:38:19;97034.63;;;29.36;100.00
3590;BME280;1809;48.470;9.226;2022-07-23T09:40:45;97037.91;;;29.20;100.00
3590;BME280;1809;48.470;9.226;2022-07-23T09:43:13;97030.31;;;28.83;100.00
3590;BME280;1809;48.470;9.226;2022-07-23T09:45:50;97040.47;;;28.94;100.00
3590;BME280;1809;48.470;9.226;2022-07-23T09:48:16;97031.94;;;28.77;100.00
3590;BME280;1809;48.470;9.226;2022-07-23T09:50:43;97026.19;;;28.58;100.00
3590;BME280;1809;48.470;9.226;2022-07-23T09:53:09;97021.03;;;28.67;100.00
3590;BME280;1809;48.470;9.226;2022-07-23T09:55:36;97025.13;;;28.93;100.00
3590;BME280;1809;48.470;9.226;2022-07-23T09:58:07;97020.31;;;29.07;100.00
3590;BME280;1809;48.470;9.226;2022-07-23T10:00:39;97026.00;;;29.30;100.00
3590;BME280;1809;48.470;9.226;2022-07-23T10:03:06;97031.19;;;29.62;100.00
3590;BME280;1809;48.470;9.226;2022-07-23T10:05:33;97033.06;;;29.35;100.00
3590;BME280;1809;48.470;9.226;2022-07-23T10:08:01;97026.91;;;29.17;100.00
3590;BME280;1809;48.470;9.226;2022-07-23T10:10:27;97013.06;;;28.79;100.00
3590;BME280;1809;48.470;9.226;2022-07-23T10:12:54;97011.75;;;29.39;100.00
3590;BME280;1809;48.470;9.226;2022-07-23T10:15:22;97011.97;;;29.55;100.00
3590;BME280;1809;48.470;9.226;2022-07-23T10:17:48;97010.91;;;30.13;100.00
3590;BME280;1809;48.470;9.226;2022-07-23T10:20:13;97025.22;;;30.62;100.00
3590;BME280;1809;48.470;9.226;2022-07-23T10:25:27;97030.41;;;30.83;100.00
3590;BME280;1809;48.470;9.226;2022-07-23T10:28:12;97026.88;;;31.09;100.00
3590;BME280;1809;48.470;9.226;2022-07-23T10:33:51;97017.38;;;30.60;100.00
3590;BME280;1809;48.470;9.226;2022-07-23T10:36:40;97028.97;;;30.18;100.00
3590;BME280;1809;48.470;9.226;2022-07-23T10:39:13;97022.53;;;30.28;100.00
3590;BME280;1809;48.470;9.226;2022-07-23T10:41:47;97023.41;;;30.21;100.00
3590;BME280;1809;48.470;9.226;2022-07-23T10:44:16;97019.44;;;30.53;100.00
3590;BME280;1809;48.470;9.226;2022-07-23T10:46:58;97014.72;;;29.93;100.00
3590;BME280;1809;48.470;9.226;2022-07-23T10:52:19;97015.19;;;30.48;100.00
3590;BME280;1809;48.470;9.226;2022-07-23T10:54:46;97025.84;;;30.73;100.00
3590;BME280;1809;48.470;9.226;2022-07-23T10:57:14;97018.22;;;30.57;100.00
3590;BME280;1809;48.470;9.226;2022-07-23T11:02:30;97011.69;;;30.44;100.00
3590;BME280;1809;48.470;9.226;2022-07-23T11:05:01;97014.72;;;30.23;100.00
3590;BME280;1809;48.470;9.226;2022-07-23T11:07:26;97018.72;;;30.18;100.00
3590;BME280;1809;48.470;9.226;2022-07-23T11:09:52;97005.03;;;30.38;100.00
3590;BME280;1809;48.470;9.226;2022-07-23T11:15:08;97012.94;;;29.75;100.00
3590;BME280;1809;48.470;9.226;2022-07-23T11:22:38;97014.06;;;29.44;100.00
3590;BME280;1809;48.470;9.226;2022-07-23T11:25:05;97014.25;;;29.98;100.00
3590;BME280;1809;48.470;9.226;2022-07-23T11:27:44;97013.53;;;30.77;100.00
3590;BME280;1809;48.470;9.226;2022-07-23T11:32:52;97024.78;;;31.79;100.00
3590;BME280;1809;48.470;9.226;2022-07-23T11:35:23;97024.38;;;31.61;100.00
3590;BME280;1809;48.470;9.226;2022-07-23T11:37:50;97027.19;;;30.88;100.00
3590;BME280;1809;48.470;9.226;2022-07-23T11:40:19;97018.38;;;30.97;100.00
3590;BME280;1809;48.470;9.226;2022-07-23T11:43:00;97024.13;;;30.56;100.00
3590;BME280;1809;48.470;9.226;2022-07-23T11:45:40;97021.56;;;30.68;100.00
3590;BME280;1809;48.470;9.226;2022-07-23T11:48:08;97016.97;;;30.58;100.00
3590;BME280;1809;48.470;9.226;2022-07-23T11:50:34;97010.59;;;30.34;100.00
3590;BME280;1809;48.470;9.226;2022-07-23T11:53:00;97012.09;;;30.43;100.00
3590;BME280;1809;48.470;9.226;2022-07-23T11:55:25;97009.38;;;30.39;100.00
3590;BME280;1809;48.470;9.226;2022-07-23T11:57:52;97007.75;;;30.68;100.00
3590;BME280;1809;48.470;9.226;2022-07-23T12:00:23;97002.69;;;30.67;100.00
3590;BME280;1809;48.470;9.226;2022-07-23T12:02:53;96986.81;;;30.71;100.00
3590;BME280;1809;48.470;9.226;2022-07-23T12:05:25;96993.47;;;30.73;100.00
3590;BME280;1809;48.470;9.226;2022-07-23T12:07:52;96997.66;;;30.58;100.00
3590;BME280;1809;48.470;9.226;2022-07-23T12:10:23;97000.00;;;30.60;100.00
3590;BME280;1809;48.470;9.226;2022-07-23T12:12:55;97001.63;;;30.57;100.00
3590;BME280;1809;48.470;9.226;2022-07-23T12:15:26;96997.66;;;30.58;100.00
3590;BME280;1809;48.470;9.226;2022-07-23T12:17:53;96987.19;;;30.46;100.00
3590;BME280;1809;48.470;9.226;2022-07-23T12:20:26;96995.75;;;30.25;100.00
3590;BME280;1809;48.470;9.226;2022-07-23T12:22:56;96994.56;;;29.96;100.00
3590;BME280;1809;48.470;9.226;2022-07-23T12:25:25;96994.16;;;29.97;100.00
3590;BME280;1809;48.470;9.226;2022-07-23T12:30:31;96989.22;;;30.42;100.00
3590;BME280;1809;48.470;9.226;2022-07-23T12:32:58;96993.47;;;30.73;100.00
3590;BME280;1809;48.470;9.226;2022-07-23T12:35:31;96997.09;;;31.17;100.00
3590;BME280;1809;48.470;9.226;2022-07-23T12:38:06;96990.31;;;31.64;100.00
3590;BME280;1809;48.470;9.226;2022-07-23T12:40:33;96988.44;;;31.38;100.00
3590;BME280;1809;48.470;9.226;2022-07-23T12:43:10;96997.31;;;30.56;100.00
3590;BME280;1809;48.470;9.226;2022-07-23T12:45:50;96988.06;;;30.13;100.00
3590;BME280;1809;48.470;9.226;2022-07-23T12:48:36;96990.72;;;29.90;100.00
3590;BME280;1809;48.470;9.226;2022-07-23T12:51:30;96989.59;;;29.83;100.00
3590;BME280;1809;48.470;9.226;2022-07-23T12:54:05;96989.53;;;29.91;100.00
3590;BME280;1809;48.470;9.226;2022-07-23T12:56:37;96990.00;;;29.85;100.00
3590;BME280;1809;48.470;9.226;2022-07-23T12:59:14;96980.78;;;30.26;100.00
3590;BME280;1809;48.470;9.226;2022-07-23T13:01:53;96995.97;;;30.64;100.00
3590;BME280;1809;48.470;9.226;2022-07-23T13:04:21;96991.31;;;30.61;100.00
3590;BME280;1809;48.470;9.226;2022-07-23T13:06:52;96986.31;;;30.53;100.00
3590;BME280;1809;48.470;9.226;2022-07-23T13:09:27;96993.09;;;30.48;100.00
3590;BME280;1809;48.470;9.226;2022-07-23T13:11:54;96992.88;;;30.62;100.00
3590;BME280;1809;48.470;9.226;2022-07-23T13:14:21;96993.72;;;30.82;100.00
3590;BME280;1809;48.470;9.226;2022-07-23T13:16:48;96998.16;;;30.76;100.00
3590;BME280;1809;48.470;9.226;2022-07-23T13:19:14;96998.28;;;30.92;100.00
3590;BME280;1809;48.470;9.226;2022-07-23T13:21:40;97009.59;;;31.02;100.00
3590;BME280;1809;48.470;9.226;2022-07-23T13:24:07;97011.84;;;30.83;100.00
3590;BME280;1809;48.470;9.226;2022-07-23T13:26:32;97012.50;;;30.95;100.00
3590;BME280;1809;48.470;9.226;2022-07-23T13:28:58;97011.63;;;30.74;100.00
3590;BME280;1809;48.470;9.226;2022-07-23T13:31:23;97010.88;;;30.70;100.00
3590;BME280;1809;48.470;9.226;2022-07-23T13:33:49;97006.94;;;30.45;100.00
3590;BME280;1809;48.470;9.226;2022-07-23T13:36:15;97001.41;;;30.71;100.00
3590;BME280;1809;48.470;9.226;2022-07-23T13:38:40;97004.34;;;30.84;100.00
3590;BME280;1809;48.470;9.226;2022-07-23T13:41:06;96998.78;;;30.34;100.00